sensor_id;sensor_type;location;lat;lon;timestamp;P1;durP1;ratioP1;P2;durP2;ratioP2
68923;SDS011;55961;52.156;20.942;2023-05-08T00:00:26;11.55;;;5.57;;
68923;SDS011;55961;52.156;20.942;2023-05-08T00:03:12;11.50;;;5.82;;
68923;SDS011;55961;52.156;20.942;2023-05-08T00:05:41;14.45;;;6.15;;
68923;SDS011;55961;52.156;20.942;2023-05-08T00:08:07;12.27;;;6.00;;
68923;SDS011;55961;52.156;20.942;2023-05-08T00:10:33;14.70;;;6.30;;
68923;SDS011;55961;52.156;20.942;2023-05-08T00:12:59;11.70;;;5.60;;
68923;SDS011;55961;52.156;20.942;2023-05-08T00:15:25;14.23;;;6.03;;
68923;SDS011;55961;52.156;20.942;2023-05-08T00:17:50;12.63;;;5.77;;
68923;SDS011;55961;52.156;20.942;2023-05-08T00:20:16;12.02;;;6.30;;
68923;SDS011;55961;52.156;20.942;2023-05-08T00:22:42;12.57;;;5.93;;
68923;SDS011;55961;52.156;20.942;2023-05-08T00:25:08;10.53;;;5.23;;
68923;SDS011;55961;52.156;20.942;2023-05-08T00:27:34;11.63;;;5.40;;
68923;SDS011;55961;52.156;20.942;2023-05-08T00:30:00;13.43;;;5.47;;
68923;SDS011;55961;52.156;20.942;2023-05-08T00:32:26;10.75;;;5.68;;
68923;SDS011;55961;52.156;20.942;2023-05-08T00:34:53;11.43;;;5.60;;
68923;SDS011;55961;52.156;20.942;2023-05-08T00:37:18;10.57;;;5.78;;
68923;SDS011;55961;52.156;20.942;2023-05-08T00:39:44;10.85;;;5.32;;
68923;SDS011;55961;52.156;20.942;2023-05-08T00:42:10;11.00;;;5.20;;
68923;SDS011;55961;52.156;20.942;2023-05-08T00:44:36;9.80;;;5.13;;
68923;SDS011;55961;52.156;20.942;2023-05-08T00:47:04;11.57;;;5.13;;
68923;SDS011;55961;52.156;20.942;2023-05-08T00:49:31;12.30;;;5.60;;
68923;SDS011;55961;52.156;20.942;2023-05-08T00:51:59;11.35;;;5.70;;
68923;SDS011;55961;52.156;20.942;2023-05-08T00:54:27;12.63;;;5.90;;
68923;SDS011;55961;52.156;20.942;2023-05-08T00:56:53;9.95;;;4.97;;
68923;SDS011;55961;52.156;20.942;2023-05-08T00:59:20;12.48;;;5.60;;
68923;SDS011;55961;52.156;20.942;2023-05-08T01:01:49;12.30;;;5.72;;
68923;SDS011;55961;52.156;20.942;2023-05-08T01:04:17;12.65;;;6.07;;
68923;SDS011;55961;52.156;20.942;2023-05-08T01:06:45;11.30;;;6.13;;
68923;SDS011;55961;52.156;20.942;2023-05-08T01:09:11;18.40;;;6.20;;
68923;SDS011;55961;52.156;20.942;2023-05-08T01:11:43;11.88;;;5.88;;
68923;SDS011;55961;52.156;20.942;2023-05-08T01:17:21;11.40;;;5.85;;
68923;SDS011;55961;52.156;20.942;2023-05-08T01:34:25;13.68;;;6.63;;
68923;SDS011;55961;52.156;20.942;2023-05-08T01:36:57;12.10;;;6.10;;
68923;SDS011;55961;52.156;20.942;2023-05-08T01:39:44;17.92;;;7.05;;
68923;SDS011;55961;52.156;20.942;2023-05-08T01:42:42;15.57;;;6.73;;
68923;SDS011;55961;52.156;20.942;2023-05-08T01:45:21;14.50;;;6.97;;
68923;SDS011;55961;52.156;20.942;2023-05-08T01:47:54;13.70;;;6.70;;
68923;SDS011;55961;52.156;20.942;2023-05-08T01:50:36;13.25;;;6.75;;
68923;SDS011;55961;52.156;20.942;2023-05-08T01:53:28;16.83;;;7.13;;
68923;SDS011;55961;52.156;20.942;2023-05-08T01:55:57;12.63;;;6.40;;
68923;SDS011;55961;52.156;20.942;2023-05-08T01:58:25;14.85;;;7.20;;
68923;SDS011;55961;52.156;20.942;2023-05-08T02:00:53;13.15;;;6.90;;
68923;SDS011;55961;52.156;20.942;2023-05-08T02:03:20;12.32;;;6.40;;
68923;SDS011;55961;52.156;20.942;2023-05-08T02:05:49;14.32;;;6.72;;
68923;SDS011;55961;52.156;20.942;2023-05-08T02:08:16;15.10;;;6.83;;
68923;SDS011;55961;52.156;20.942;2023-05-08T02:10:44;15.20;;;6.70;;
68923;SDS011;55961;52.156;20.942;2023-05-08T02:13:12;14.75;;;6.90;;
68923;SDS011;55961;52.156;20.942;2023-05-08T02:15:43;17.67;;;6.45;;
68923;SDS011;55961;52.156;20.942;2023-05-08T02:18:12;12.48;;;6.70;;
68923;SDS011;55961;52.156;20.942;2023-05-08T02:20:39;12.27;;;6.37;;
68923;SDS011;55961;52.156;20.942;2023-05-08T02:23:06;10.23;;;5.90;;
68923;SDS011;55961;52.156;20.942;2023-05-08T02:25:33;11.63;;;6.22;;
68923;SDS011;55961;52.156;20.942;2023-05-08T02:28:00;12.32;;;6.22;;
68923;SDS011;55961;52.156;20.942;2023-05-08T02:30:27;16.83;;;7.43;;
68923;SDS011;55961;52.156;20.942;2023-05-08T02:32:54;12.03;;;6.57;;
68923;SDS011;55961;52.156;20.942;2023-05-08T02:35:21;13.55;;;6.03;;
68923;SDS011;55961;52.156;20.942;2023-05-08T02:37:50;13.10;;;6.10;;
68923;SDS011;55961;52.156;20.942;2023-05-08T02:40:18;13.95;;;7.13;;
68923;SDS011;55961;52.156;20.942;2023-05-08T02:42:46;12.60;;;6.35;;
68923;SDS011;55961;52.156;20.942;2023-05-08T02:45:13;13.73;;;5.80;;
68923;SDS011;55961;52.156;20.942;2023-05-08T02:50:44;13.05;;;6.85;;
68923;SDS011;55961;52.156;20.942;2023-05-08T02:53:31;12.00;;;6.20;;
68923;SDS011;55961;52.156;20.942;2023-05-08T02:56:08;14.15;;;6.15;;
68923;SDS011;55961;52.156;20.942;2023-05-08T02:58:41;13.97;;;7.10;;
68923;SDS011;55961;52.156;20.942;2023-05-08T03:01:15;14.50;;;6.47;;
68923;SDS011;55961;52.156;20.942;2023-05-08T03:03:58;14.00;;;6.15;;
68923;SDS011;55961;52.156;20.942;2023-05-08T03:06:32;12.30;;;6.15;;
68923;SDS011;55961;52.156;20.942;2023-05-08T03:09:02;18.08;;;6.70;;
68923;SDS011;55961;52.156;20.942;2023-05-08T03:11:33;11.97;;;6.43;;
68923;SDS011;55961;52.156;20.942;2023-05-08T03:14:04;15.98;;;6.38;;
68923;SDS011;55961;52.156;20.942;2023-05-08T03:16:33;14.63;;;7.03;;
68923;SDS011;55961;52.156;20.942;2023-05-08T03:19:02;15.38;;;6.45;;
68923;SDS011;55961;52.156;20.942;2023-05-08T03:21:31;13.18;;;6.78;;
68923;SDS011;55961;52.156;20.942;2023-05-08T03:23:59;11.80;;;6.23;;
68923;SDS011;55961;52.156;20.942;2023-05-08T03:26:27;13.40;;;6.50;;
68923;SDS011;55961;52.156;20.942;2023-05-08T03:28:53;13.88;;;7.10;;
68923;SDS011;55961;52.156;20.942;2023-05-08T03:31:21;14.48;;;6.80;;
68923;SDS011;55961;52.156;20.942;2023-05-08T03:33:52;13.60;;;6.90;;
68923;SDS011;55961;52.156;20.942;2023-05-08T03:36:19;13.30;;;6.80;;
68923;SDS011;55961;52.156;20.942;2023-05-08T03:38:46;19.13;;;9.10;;
68923;SDS011;55961;52.156;20.942;2023-05-08T03:41:13;16.33;;;7.82;;
68923;SDS011;55961;52.156;20.942;2023-05-08T03:43:39;17.25;;;9.02;;
68923;SDS011;55961;52.156;20.942;2023-05-08T03:46:06;17.35;;;7.60;;
68923;SDS011;55961;52.156;20.942;2023-05-08T03:48:33;14.40;;;7.70;;
68923;SDS011;55961;52.156;20.942;2023-05-08T03:51:02;16.35;;;8.05;;
68923;SDS011;55961;52.156;20.942;2023-05-08T03:53:30;14.10;;;8.23;;
68923;SDS011;55961;52.156;20.942;2023-05-08T03:55:57;15.55;;;6.70;;
68923;SDS011;55961;52.156;20.942;2023-05-08T03:58:37;15.70;;;8.35;;
68923;SDS011;55961;52.156;20.942;2023-05-08T04:01:17;15.97;;;7.70;;
68923;SDS011;55961;52.156;20.942;2023-05-08T04:04:00;14.55;;;7.38;;
68923;SDS011;55961;52.156;20.942;2023-05-08T04:09:36;15.68;;;7.22;;
68923;SDS011;55961;52.156;20.942;2023-05-08T04:14:51;14.57;;;6.93;;
68923;SDS011;55961;52.156;20.942;2023-05-08T04:17:27;12.93;;;6.45;;
68923;SDS011;55961;52.156;20.942;2023-05-08T04:20:05;12.10;;;7.38;;
68923;SDS011;55961;52.156;20.942;2023-05-08T04:22:33;13.63;;;8.00;;
68923;SDS011;55961;52.156;20.942;2023-05-08T04:25:03;18.17;;;9.00;;
68923;SDS011;55961;52.156;20.942;2023-05-08T04:27:32;12.40;;;6.70;;
68923;SDS011;55961;52.156;20.942;2023-05-08T04:29:59;12.32;;;6.60;;
68923;SDS011;55961;52.156;20.942;2023-05-08T04:32:26;14.35;;;6.82;;
68923;SDS011;55961;52.156;20.942;2023-05-08T04:34:52;12.32;;;5.90;;
68923;SDS011;55961;52.156;20.942;2023-05-08T04:37:26;11.43;;;6.18;;
68923;SDS011;55961;52.156;20.942;2023-05-08T04:39:53;13.70;;;6.50;;
68923;SDS011;55961;52.156;20.942;2023-05-08T04:42:19;12.25;;;6.30;;
68923;SDS011;55961;52.156;20.942;2023-05-08T04:44:45;12.85;;;6.18;;
68923;SDS011;55961;52.156;20.942;2023-05-08T04:47:12;11.73;;;5.80;;
68923;SDS011;55961;52.156;20.942;2023-05-08T04:49:38;9.93;;;5.30;;
68923;SDS011;55961;52.156;20.942;2023-05-08T04:52:04;11.48;;;5.93;;
68923;SDS011;55961;52.156;20.942;2023-05-08T04:54:33;9.65;;;5.10;;
68923;SDS011;55961;52.156;20.942;2023-05-08T04:56:59;11.40;;;5.00;;
68923;SDS011;55961;52.156;20.942;2023-05-08T04:59:25;8.40;;;4.53;;
68923;SDS011;55961;52.156;20.942;2023-05-08T05:01:52;8.25;;;4.20;;
68923;SDS011;55961;52.156;20.942;2023-05-08T05:04:18;8.10;;;3.42;;
68923;SDS011;55961;52.156;20.942;2023-05-08T05:06:44;7.65;;;3.38;;
68923;SDS011;55961;52.156;20.942;2023-05-08T05:09:10;7.07;;;3.13;;
68923;SDS011;55961;52.156;20.942;2023-05-08T05:11:36;6.88;;;2.97;;
68923;SDS011;55961;52.156;20.942;2023-05-08T05:14:02;7.60;;;3.00;;
68923;SDS011;55961;52.156;20.942;2023-05-08T05:16:28;7.05;;;2.65;;
68923;SDS011;55961;52.156;20.942;2023-05-08T05:18:54;6.77;;;2.83;;
68923;SDS011;55961;52.156;20.942;2023-05-08T05:21:20;7.32;;;3.20;;
68923;SDS011;55961;52.156;20.942;2023-05-08T05:23:47;7.20;;;2.38;;
68923;SDS011;55961;52.156;20.942;2023-05-08T05:26:12;5.55;;;2.22;;
68923;SDS011;55961;52.156;20.942;2023-05-08T05:28:38;5.78;;;2.80;;
68923;SDS011;55961;52.156;20.942;2023-05-08T05:31:04;5.37;;;2.17;;
68923;SDS011;55961;52.156;20.942;2023-05-08T05:33:30;4.47;;;1.88;;
68923;SDS011;55961;52.156;20.942;2023-05-08T05:35:56;7.27;;;2.10;;
68923;SDS011;55961;52.156;20.942;2023-05-08T05:38:23;4.80;;;1.77;;
68923;SDS011;55961;52.156;20.942;2023-05-08T05:40:49;5.10;;;1.83;;
68923;SDS011;55961;52.156;20.942;2023-05-08T05:43:15;4.68;;;1.50;;
68923;SDS011;55961;52.156;20.942;2023-05-08T05:45:40;5.37;;;1.53;;
68923;SDS011;55961;52.156;20.942;2023-05-08T05:48:06;3.63;;;1.40;;
68923;SDS011;55961;52.156;20.942;2023-05-08T05:50:32;4.63;;;1.60;;
68923;SDS011;55961;52.156;20.942;2023-05-08T05:52:58;5.28;;;1.85;;
68923;SDS011;55961;52.156;20.942;2023-05-08T05:55:24;4.63;;;1.80;;
68923;SDS011;55961;52.156;20.942;2023-05-08T05:57:51;9.02;;;1.80;;
68923;SDS011;55961;52.156;20.942;2023-05-08T06:00:16;4.77;;;2.07;;
68923;SDS011;55961;52.156;20.942;2023-05-08T06:02:43;4.07;;;1.77;;
68923;SDS011;55961;52.156;20.942;2023-05-08T06:05:09;8.93;;;2.08;;
68923;SDS011;55961;52.156;20.942;2023-05-08T06:07:35;5.25;;;1.73;;
68923;SDS011;55961;52.156;20.942;2023-05-08T06:10:01;4.60;;;1.70;;
68923;SDS011;55961;52.156;20.942;2023-05-08T06:12:27;4.30;;;1.60;;
68923;SDS011;55961;52.156;20.942;2023-05-08T06:14:54;4.15;;;1.63;;
68923;SDS011;55961;52.156;20.942;2023-05-08T06:17:20;4.10;;;1.73;;
68923;SDS011;55961;52.156;20.942;2023-05-08T06:19:46;5.03;;;2.10;;
68923;SDS011;55961;52.156;20.942;2023-05-08T06:22:17;6.60;;;1.98;;
68923;SDS011;55961;52.156;20.942;2023-05-08T06:24:47;5.30;;;1.80;;
68923;SDS011;55961;52.156;20.942;2023-05-08T06:27:14;4.88;;;1.48;;
68923;SDS011;55961;52.156;20.942;2023-05-08T06:29:39;3.83;;;1.60;;
68923;SDS011;55961;52.156;20.942;2023-05-08T06:32:05;4.60;;;2.00;;
68923;SDS011;55961;52.156;20.942;2023-05-08T06:34:31;5.33;;;1.90;;
68923;SDS011;55961;52.156;20.942;2023-05-08T06:36:57;5.18;;;1.90;;
68923;SDS011;55961;52.156;20.942;2023-05-08T06:39:23;3.67;;;1.55;;
68923;SDS011;55961;52.156;20.942;2023-05-08T06:41:49;5.82;;;1.42;;
68923;SDS011;55961;52.156;20.942;2023-05-08T06:44:15;4.70;;;1.70;;
68923;SDS011;55961;52.156;20.942;2023-05-08T06:46:41;4.35;;;1.67;;
68923;SDS011;55961;52.156;20.942;2023-05-08T06:49:07;5.30;;;1.80;;
68923;SDS011;55961;52.156;20.942;2023-05-08T06:51:33;5.50;;;1.87;;
68923;SDS011;55961;52.156;20.942;2023-05-08T06:54:03;4.05;;;1.85;;
68923;SDS011;55961;52.156;20.942;2023-05-08T06:56:33;5.25;;;2.35;;
68923;SDS011;55961;52.156;20.942;2023-05-08T06:58:59;5.68;;;1.92;;
68923;SDS011;55961;52.156;20.942;2023-05-08T07:01:25;4.57;;;1.73;;
68923;SDS011;55961;52.156;20.942;2023-05-08T07:03:51;5.10;;;2.30;;
68923;SDS011;55961;52.156;20.942;2023-05-08T07:06:17;4.75;;;2.10;;
68923;SDS011;55961;52.156;20.942;2023-05-08T07:08:43;3.78;;;1.80;;
68923;SDS011;55961;52.156;20.942;2023-05-08T07:11:09;5.10;;;1.97;;
68923;SDS011;55961;52.156;20.942;2023-05-08T07:13:35;4.70;;;1.77;;
68923;SDS011;55961;52.156;20.942;2023-05-08T07:16:01;5.78;;;2.22;;
68923;SDS011;55961;52.156;20.942;2023-05-08T07:18:29;6.88;;;2.03;;
68923;SDS011;55961;52.156;20.942;2023-05-08T07:20:55;5.45;;;2.75;;
68923;SDS011;55961;52.156;20.942;2023-05-08T07:23:21;5.93;;;2.20;;
68923;SDS011;55961;52.156;20.942;2023-05-08T07:25:47;5.55;;;2.20;;
68923;SDS011;55961;52.156;20.942;2023-05-08T07:28:13;8.15;;;1.85;;
68923;SDS011;55961;52.156;20.942;2023-05-08T07:30:39;4.87;;;2.20;;
68923;SDS011;55961;52.156;20.942;2023-05-08T07:33:04;5.50;;;2.03;;
68923;SDS011;55961;52.156;20.942;2023-05-08T07:35:31;4.95;;;2.03;;
68923;SDS011;55961;52.156;20.942;2023-05-08T07:37:56;5.17;;;1.90;;
68923;SDS011;55961;52.156;20.942;2023-05-08T07:40:22;5.40;;;2.22;;
68923;SDS011;55961;52.156;20.942;2023-05-08T07:42:48;6.97;;;2.08;;
68923;SDS011;55961;52.156;20.942;2023-05-08T07:45:14;3.90;;;1.92;;
68923;SDS011;55961;52.156;20.942;2023-05-08T07:47:53;4.23;;;1.80;;
68923;SDS011;55961;52.156;20.942;2023-05-08T07:50:21;5.60;;;2.03;;
68923;SDS011;55961;52.156;20.942;2023-05-08T07:52:49;4.53;;;1.70;;
68923;SDS011;55961;52.156;20.942;2023-05-08T07:55:16;4.72;;;1.67;;
68923;SDS011;55961;52.156;20.942;2023-05-08T07:57:42;7.47;;;2.20;;
68923;SDS011;55961;52.156;20.942;2023-05-08T08:00:12;5.13;;;1.70;;
68923;SDS011;55961;52.156;20.942;2023-05-08T08:02:39;4.65;;;1.67;;
68923;SDS011;55961;52.156;20.942;2023-05-08T08:05:08;5.53;;;1.95;;
68923;SDS011;55961;52.156;20.942;2023-05-08T08:07:35;5.35;;;2.17;;
68923;SDS011;55961;52.156;20.942;2023-05-08T08:10:02;4.80;;;2.20;;
68923;SDS011;55961;52.156;20.942;2023-05-08T08:12:28;6.50;;;2.00;;
68923;SDS011;55961;52.156;20.942;2023-05-08T08:14:56;4.05;;;1.85;;
68923;SDS011;55961;52.156;20.942;2023-05-08T08:17:22;5.68;;;2.00;;
68923;SDS011;55961;52.156;20.942;2023-05-08T08:19:48;4.75;;;1.80;;
68923;SDS011;55961;52.156;20.942;2023-05-08T08:22:14;6.67;;;2.00;;
68923;SDS011;55961;52.156;20.942;2023-05-08T08:24:40;3.67;;;2.10;;
68923;SDS011;55961;52.156;20.942;2023-05-08T08:27:06;4.45;;;2.00;;
68923;SDS011;55961;52.156;20.942;2023-05-08T08:29:32;5.15;;;1.95;;
68923;SDS011;55961;52.156;20.942;2023-05-08T08:31:58;5.40;;;2.30;;
68923;SDS011;55961;52.156;20.942;2023-05-08T08:34:25;5.65;;;2.40;;
68923;SDS011;55961;52.156;20.942;2023-05-08T08:36:51;5.90;;;2.40;;
68923;SDS011;55961;52.156;20.942;2023-05-08T08:39:17;6.53;;;2.20;;
68923;SDS011;55961;52.156;20.942;2023-05-08T08:41:43;5.57;;;2.40;;
68923;SDS011;55961;52.156;20.942;2023-05-08T08:44:09;4.85;;;2.05;;
68923;SDS011;55961;52.156;20.942;2023-05-08T08:46:34;7.90;;;2.27;;
68923;SDS011;55961;52.156;20.942;2023-05-08T08:49:07;7.25;;;2.50;;
68923;SDS011;55961;52.156;20.942;2023-05-08T08:51:38;5.80;;;2.47;;
68923;SDS011;55961;52.156;20.942;2023-05-08T08:54:11;4.57;;;2.05;;
68923;SDS011;55961;52.156;20.942;2023-05-08T08:56:38;7.43;;;2.63;;
68923;SDS011;55961;52.156;20.942;2023-05-08T08:59:07;9.77;;;2.60;;
68923;SDS011;55961;52.156;20.942;2023-05-08T09:01:34;4.60;;;2.17;;
68923;SDS011;55961;52.156;20.942;2023-05-08T09:04:03;4.65;;;2.10;;
68923;SDS011;55961;52.156;20.942;2023-05-08T09:06:36;5.97;;;2.17;;
68923;SDS011;55961;52.156;20.942;2023-05-08T09:09:03;5.43;;;2.30;;
68923;SDS011;55961;52.156;20.942;2023-05-08T09:11:29;4.97;;;2.23;;
68923;SDS011;55961;52.156;20.942;2023-05-08T09:13:56;4.88;;;2.28;;
68923;SDS011;55961;52.156;20.942;2023-05-08T09:16:22;6.30;;;2.00;;
68923;SDS011;55961;52.156;20.942;2023-05-08T09:18:49;9.32;;;2.15;;
68923;SDS011;55961;52.156;20.942;2023-05-08T09:21:15;5.38;;;2.03;;
68923;SDS011;55961;52.156;20.942;2023-05-08T09:23:54;5.17;;;2.00;;
68923;SDS011;55961;52.156;20.942;2023-05-08T09:31:46;5.93;;;2.20;;
68923;SDS011;55961;52.156;20.942;2023-05-08T09:34:24;4.82;;;1.92;;
68923;SDS011;55961;52.156;20.942;2023-05-08T09:37:09;4.53;;;2.13;;
68923;SDS011;55961;52.156;20.942;2023-05-08T09:39:36;10.52;;;2.22;;
68923;SDS011;55961;52.156;20.942;2023-05-08T09:42:05;4.88;;;2.20;;
68923;SDS011;55961;52.156;20.942;2023-05-08T09:44:47;5.35;;;2.03;;
68923;SDS011;55961;52.156;20.942;2023-05-08T09:47:21;4.28;;;1.90;;
68923;SDS011;55961;52.156;20.942;2023-05-08T09:50:07;3.80;;;2.00;;
68923;SDS011;55961;52.156;20.942;2023-05-08T09:52:35;4.50;;;2.13;;
68923;SDS011;55961;52.156;20.942;2023-05-08T09:55:04;4.32;;;2.10;;
68923;SDS011;55961;52.156;20.942;2023-05-08T09:57:35;4.45;;;2.25;;
68923;SDS011;55961;52.156;20.942;2023-05-08T10:00:05;6.30;;;2.00;;
68923;SDS011;55961;52.156;20.942;2023-05-08T10:02:33;5.33;;;2.37;;
68923;SDS011;55961;52.156;20.942;2023-05-08T10:05:01;5.85;;;2.10;;
68923;SDS011;55961;52.156;20.942;2023-05-08T10:07:47;3.90;;;2.10;;
68923;SDS011;55961;52.156;20.942;2023-05-08T10:10:13;3.72;;;1.90;;
68923;SDS011;55961;52.156;20.942;2023-05-08T10:12:39;5.10;;;2.00;;
68923;SDS011;55961;52.156;20.942;2023-05-08T10:15:06;6.50;;;2.20;;
68923;SDS011;55961;52.156;20.942;2023-05-08T10:17:37;3.85;;;1.80;;
68923;SDS011;55961;52.156;20.942;2023-05-08T10:20:16;4.70;;;2.10;;
68923;SDS011;55961;52.156;20.942;2023-05-08T10:22:45;4.13;;;2.00;;
68923;SDS011;55961;52.156;20.942;2023-05-08T10:25:16;4.90;;;2.00;;
68923;SDS011;55961;52.156;20.942;2023-05-08T10:27:47;4.68;;;1.90;;
68923;SDS011;55961;52.156;20.942;2023-05-08T10:30:24;5.85;;;2.33;;
68923;SDS011;55961;52.156;20.942;2023-05-08T10:32:51;5.15;;;2.10;;
68923;SDS011;55961;52.156;20.942;2023-05-08T10:35:19;4.60;;;2.50;;
68923;SDS011;55961;52.156;20.942;2023-05-08T10:37:46;5.43;;;2.07;;
68923;SDS011;55961;52.156;20.942;2023-05-08T10:40:13;4.32;;;2.00;;
68923;SDS011;55961;52.156;20.942;2023-05-08T10:42:46;4.07;;;2.28;;
68923;SDS011;55961;52.156;20.942;2023-05-08T10:45:12;5.90;;;1.63;;
68923;SDS011;55961;52.156;20.942;2023-05-08T10:50:44;4.33;;;1.90;;
68923;SDS011;55961;52.156;20.942;2023-05-08T10:53:28;6.55;;;2.03;;
68923;SDS011;55961;52.156;20.942;2023-05-08T10:56:01;4.35;;;2.13;;
68923;SDS011;55961;52.156;20.942;2023-05-08T10:58:28;3.60;;;1.80;;
68923;SDS011;55961;52.156;20.942;2023-05-08T11:03:24;4.73;;;2.00;;
68923;SDS011;55961;52.156;20.942;2023-05-08T11:05:51;4.53;;;2.20;;
68923;SDS011;55961;52.156;20.942;2023-05-08T11:08:21;5.40;;;2.30;;
68923;SDS011;55961;52.156;20.942;2023-05-08T11:15:59;3.77;;;1.90;;
68923;SDS011;55961;52.156;20.942;2023-05-08T11:18:26;4.72;;;2.30;;
68923;SDS011;55961;52.156;20.942;2023-05-08T11:20:56;4.35;;;2.42;;
68923;SDS011;55961;52.156;20.942;2023-05-08T11:23:24;5.30;;;2.15;;
68923;SDS011;55961;52.156;20.942;2023-05-08T11:25:57;5.00;;;2.00;;
68923;SDS011;55961;52.156;20.942;2023-05-08T11:28:31;6.93;;;2.37;;
68923;SDS011;55961;52.156;20.942;2023-05-08T11:31:04;5.28;;;3.30;;
68923;SDS011;55961;52.156;20.942;2023-05-08T11:33:32;6.00;;;2.55;;
68923;SDS011;55961;52.156;20.942;2023-05-08T11:39:04;6.95;;;2.30;;
68923;SDS011;55961;52.156;20.942;2023-05-08T11:41:37;5.00;;;2.20;;
68923;SDS011;55961;52.156;20.942;2023-05-08T11:49:12;4.20;;;1.88;;
68923;SDS011;55961;52.156;20.942;2023-05-08T11:51:41;5.20;;;1.98;;
68923;SDS011;55961;52.156;20.942;2023-05-08T11:54:13;5.07;;;2.10;;
68923;SDS011;55961;52.156;20.942;2023-05-08T11:56:50;4.80;;;2.13;;
68923;SDS011;55961;52.156;20.942;2023-05-08T11:59:18;4.68;;;2.22;;
68923;SDS011;55961;52.156;20.942;2023-05-08T12:01:47;4.85;;;2.03;;
68923;SDS011;55961;52.156;20.942;2023-05-08T12:04:13;6.15;;;2.20;;
68923;SDS011;55961;52.156;20.942;2023-05-08T12:06:40;4.80;;;2.27;;
68923;SDS011;55961;52.156;20.942;2023-05-08T12:09:10;3.38;;;1.95;;
68923;SDS011;55961;52.156;20.942;2023-05-08T12:11:38;4.53;;;2.30;;
68923;SDS011;55961;52.156;20.942;2023-05-08T12:14:07;4.07;;;2.25;;
68923;SDS011;55961;52.156;20.942;2023-05-08T12:16:35;5.97;;;2.40;;
68923;SDS011;55961;52.156;20.942;2023-05-08T12:19:08;4.93;;;2.10;;
68923;SDS011;55961;52.156;20.942;2023-05-08T12:21:35;4.43;;;2.20;;
68923;SDS011;55961;52.156;20.942;2023-05-08T12:24:05;4.90;;;1.92;;
68923;SDS011;55961;52.156;20.942;2023-05-08T12:26:36;4.57;;;2.20;;
68923;SDS011;55961;52.156;20.942;2023-05-08T12:29:05;4.18;;;2.33;;
68923;SDS011;55961;52.156;20.942;2023-05-08T12:31:32;5.80;;;2.40;;
68923;SDS011;55961;52.156;20.942;2023-05-08T12:34:00;4.50;;;2.47;;
68923;SDS011;55961;52.156;20.942;2023-05-08T12:36:36;8.30;;;2.58;;
68923;SDS011;55961;52.156;20.942;2023-05-08T12:39:15;5.25;;;2.08;;
68923;SDS011;55961;52.156;20.942;2023-05-08T12:44:22;4.57;;;2.47;;
68923;SDS011;55961;52.156;20.942;2023-05-08T12:46:52;3.78;;;1.90;;
68923;SDS011;55961;52.156;20.942;2023-05-08T12:49:26;4.43;;;2.08;;
68923;SDS011;55961;52.156;20.942;2023-05-08T12:52:06;5.38;;;2.00;;
68923;SDS011;55961;52.156;20.942;2023-05-08T12:54:38;5.53;;;2.20;;
68923;SDS011;55961;52.156;20.942;2023-05-08T12:57:07;4.43;;;2.63;;
68923;SDS011;55961;52.156;20.942;2023-05-08T12:59:37;4.75;;;2.30;;
68923;SDS011;55961;52.156;20.942;2023-05-08T13:02:03;3.28;;;1.65;;
68923;SDS011;55961;52.156;20.942;2023-05-08T13:04:43;4.88;;;2.30;;
68923;SDS011;55961;52.156;20.942;2023-05-08T13:07:10;4.45;;;2.28;;
68923;SDS011;55961;52.156;20.942;2023-05-08T13:09:36;4.67;;;2.00;;
68923;SDS011;55961;52.156;20.942;2023-05-08T13:12:02;4.53;;;2.13;;
68923;SDS011;55961;52.156;20.942;2023-05-08T13:14:29;4.82;;;2.03;;
68923;SDS011;55961;52.156;20.942;2023-05-08T13:16:55;6.35;;;2.40;;
68923;SDS011;55961;52.156;20.942;2023-05-08T13:19:21;5.97;;;2.20;;
68923;SDS011;55961;52.156;20.942;2023-05-08T13:21:47;6.00;;;2.10;;
68923;SDS011;55961;52.156;20.942;2023-05-08T13:24:13;4.00;;;2.10;;
68923;SDS011;55961;52.156;20.942;2023-05-08T13:26:39;7.03;;;1.90;;
68923;SDS011;55961;52.156;20.942;2023-05-08T13:29:05;4.23;;;2.00;;
68923;SDS011;55961;52.156;20.942;2023-05-08T13:31:31;5.88;;;2.40;;
68923;SDS011;55961;52.156;20.942;2023-05-08T13:33:57;4.53;;;2.30;;
68923;SDS011;55961;52.156;20.942;2023-05-08T13:36:23;6.63;;;2.10;;
68923;SDS011;55961;52.156;20.942;2023-05-08T13:38:49;6.03;;;2.17;;
68923;SDS011;55961;52.156;20.942;2023-05-08T13:41:18;3.95;;;2.05;;
68923;SDS011;55961;52.156;20.942;2023-05-08T13:43:46;3.65;;;2.03;;
68923;SDS011;55961;52.156;20.942;2023-05-08T13:46:12;3.83;;;1.70;;
68923;SDS011;55961;52.156;20.942;2023-05-08T13:48:38;6.13;;;2.30;;
68923;SDS011;55961;52.156;20.942;2023-05-08T13:51:04;5.00;;;1.90;;
68923;SDS011;55961;52.156;20.942;2023-05-08T13:53:30;3.85;;;2.00;;
68923;SDS011;55961;52.156;20.942;2023-05-08T13:55:56;5.80;;;2.50;;
68923;SDS011;55961;52.156;20.942;2023-05-08T13:58:22;5.05;;;1.90;;
68923;SDS011;55961;52.156;20.942;2023-05-08T14:00:48;5.00;;;2.20;;
68923;SDS011;55961;52.156;20.942;2023-05-08T14:03:14;4.90;;;2.03;;
68923;SDS011;55961;52.156;20.942;2023-05-08T14:05:40;5.28;;;1.80;;
68923;SDS011;55961;52.156;20.942;2023-05-08T14:08:05;4.68;;;2.50;;
68923;SDS011;55961;52.156;20.942;2023-05-08T14:10:31;5.53;;;3.08;;
68923;SDS011;55961;52.156;20.942;2023-05-08T14:12:57;33.57;;;17.27;;
68923;SDS011;55961;52.156;20.942;2023-05-08T14:15:23;43.03;;;20.90;;
68923;SDS011;55961;52.156;20.942;2023-05-08T14:17:49;24.40;;;13.83;;
68923;SDS011;55961;52.156;20.942;2023-05-08T14:20:15;15.40;;;8.37;;
68923;SDS011;55961;52.156;20.942;2023-05-08T14:22:41;7.28;;;4.28;;
68923;SDS011;55961;52.156;20.942;2023-05-08T14:25:07;4.47;;;2.10;;
68923;SDS011;55961;52.156;20.942;2023-05-08T14:27:33;4.63;;;2.30;;
68923;SDS011;55961;52.156;20.942;2023-05-08T14:29:59;4.67;;;2.03;;
68923;SDS011;55961;52.156;20.942;2023-05-08T14:32:25;6.07;;;2.20;;
68923;SDS011;55961;52.156;20.942;2023-05-08T14:34:51;5.82;;;2.42;;
68923;SDS011;55961;52.156;20.942;2023-05-08T14:37:17;4.70;;;2.30;;
68923;SDS011;55961;52.156;20.942;2023-05-08T14:39:43;7.50;;;2.50;;
68923;SDS011;55961;52.156;20.942;2023-05-08T14:42:09;5.43;;;2.30;;
68923;SDS011;55961;52.156;20.942;2023-05-08T14:44:36;4.38;;;1.83;;
68923;SDS011;55961;52.156;20.942;2023-05-08T14:47:02;5.23;;;2.30;;
68923;SDS011;55961;52.156;20.942;2023-05-08T14:49:28;6.40;;;2.60;;
68923;SDS011;55961;52.156;20.942;2023-05-08T14:51:54;3.60;;;1.88;;
68923;SDS011;55961;52.156;20.942;2023-05-08T14:54:20;5.65;;;2.30;;
68923;SDS011;55961;52.156;20.942;2023-05-08T14:56:46;5.37;;;2.50;;
68923;SDS011;55961;52.156;20.942;2023-05-08T14:59:12;4.18;;;2.05;;
68923;SDS011;55961;52.156;20.942;2023-05-08T15:01:38;6.05;;;1.80;;
68923;SDS011;55961;52.156;20.942;2023-05-08T15:04:07;4.97;;;1.90;;
68923;SDS011;55961;52.156;20.942;2023-05-08T15:06:34;3.27;;;1.67;;
68923;SDS011;55961;52.156;20.942;2023-05-08T15:09:00;4.65;;;2.05;;
68923;SDS011;55961;52.156;20.942;2023-05-08T15:11:26;4.03;;;2.10;;
68923;SDS011;55961;52.156;20.942;2023-05-08T15:13:52;4.10;;;2.10;;
68923;SDS011;55961;52.156;20.942;2023-05-08T15:16:18;4.70;;;2.27;;
68923;SDS011;55961;52.156;20.942;2023-05-08T15:18:44;6.55;;;2.00;;
68923;SDS011;55961;52.156;20.942;2023-05-08T15:21:10;5.13;;;2.30;;
68923;SDS011;55961;52.156;20.942;2023-05-08T15:23:37;4.22;;;2.30;;
68923;SDS011;55961;52.156;20.942;2023-05-08T15:26:02;4.50;;;2.13;;
68923;SDS011;55961;52.156;20.942;2023-05-08T15:28:28;7.25;;;2.00;;
68923;SDS011;55961;52.156;20.942;2023-05-08T15:30:54;5.30;;;2.70;;